AirNav   Bose A20 Aviation Headset
 
 443 users online  

KMHP Metter Municipal Airport
Metter, Georgia, USA

GOING TO METTER?


FAA INFORMATION EFFECTIVE 11 OCTOBER 2018

Location

FAA Identifier: MHP
Lat/Long: 32-22-26.3000N / 082-04-53.2000W
32-22.438333N / 082-04.886667W
32.3739722 / -82.0814444
(estimated)
Elevation: 197.3 ft. / 60.1 m (surveyed)
Variation: 07W (2020)
From city: 2 miles S of METTER, GA
Time zone: UTC -4 (UTC -5 during Standard Time)
Zip code: 30439

Airport Operations

Airport use: Open to the public
Activation date: 09/1963
Control tower: no
ARTCC: JACKSONVILLE CENTER
FSS: MACON FLIGHT SERVICE STATION
NOTAMs facility: MCN (NOTAM-D service available)
Attendance: UNATTENDED
Wind indicator: lighted
Segmented circle: yes
Lights: ACTVT MIRL RY 10/28, PAPI RYS 10 & 28 AND REIL RY 10 - CTAF.
Beacon: white-green (lighted land airport)
Operates sunset to sunrise.

Airport Communications

CTAF/UNICOM: 123.0
WX AWOS-3 at CWV (15 nm SE): 120.075 (912-739-3768)
WX AWOS-3 at VDI (18 nm SW): 119.925 (912-538-0219)
WX AWOS-3 at TBR (19 nm E): 119.025 (912-764-9321)
  • APCH/DEP SVC PRVDD BY JACKSONVILLE ARTCC ON FREQS 132.925/363.2 (MILLEN RCAG).

Nearby radio navigation aids

VOR radial/distance  VOR name  Freq  Var
DBNr112/39.6DUBLIN VORTAC113.1005W

 
NDB name  Hdg/Dist  Freq  Var  ID
ONYUN057/14.237206WUQN ..- --.- -.
CLAXTON320/15.139504WCWV -.-. .-- ...-
EMANUEL COUNTY139/25.730906WEEX . . -..-
SYLVANIA240/29.724504WJYL .--- -.-- .-..

Airport Services

Fuel available: 100LL
Parking: tiedowns
Airframe service: MAJOR
Powerplant service: MAJOR
Bottled oxygen: NONE
Bulk oxygen: NONE

Runway Information

Runway 10/28

Dimensions: 5001 x 75 ft. / 1524 x 23 m
Surface: asphalt, in good condition
Weight bearing capacity: 
Single wheel: 19.0
Runway edge lights: medium intensity
RUNWAY 10  RUNWAY 28
Latitude: 32-22.458092N32-22.419348N
Longitude: 082-05.371248W082-04.400472W
Elevation: 188.0 ft.195.9 ft.
Gradient: 0.1%0.1%
Traffic pattern: leftleft
Runway heading: 100 magnetic, 093 true280 magnetic, 273 true
Markings: nonprecision, in good conditionnonprecision, in good condition
Visual slope indicator: 2-light PAPI on right (3.00 degrees glide path)2-light PAPI on left (3.00 degrees glide path)
Runway end identifier lights: yes
Touchdown point: yes, no lightsyes, no lights
Obstructions: 41 ft. trees, 1594 ft. from runway, 450 ft. left of centerline, 34:1 slope to clear5 ft. trees, 215 ft. from runway, 239 ft. right of centerline, 3:1 slope to clear
6 FT FENCE AND SHRUBS 0 FT-200 FT FM THLD, 180 FT RIGHT.

Airport Ownership and Management from official FAA records

Ownership: Publicly-owned
Owner: METTER-CANDLER AIRPORT AUTHORITY
PO BOX 61
METTER, GA 30439
Phone 912-685-7845
Manager: CLIFF HENDRIX
METTER-CANDLER AIRPORT AUTHORITY, 25 S. TERRELL STREET
METTER, GA 30439
Phone 912-536-5909
ARPT PHONE 912-685-4162.

Airport Operational Statistics

Aircraft based on the field: 14
Single engine airplanes: 14
    
Aircraft operations: avg 22/day *
74% local general aviation
25% transient general aviation
1% military
* for 12-month period ending 31 December 2016

Instrument Procedures

NOTE: All procedures below are presented as PDF files. If you need a reader for these files, you should download the free Adobe Reader.

NOT FOR NAVIGATION. Please procure official charts for flight.
FAA instrument procedures published for use from 11 October 2018 at 0901Z to 8 November 2018 at 0900Z.

 
IAPs - Instrument Approach Procedures
RNAV (GPS) RWY 10   download (210KB)
RNAV (GPS) RWY 28   download (198KB)
NOTE: Special Take-Off Minimums/Departure Procedures apply   download (189KB)

Other nearby airports with instrument procedures:

KCWV - Claxton-Evans County Airport (15 nm SE)
KVDI - Vidalia Regional Airport (18 nm SW)
KTBR - Statesboro-Bulloch County Airport (19 nm E)
KRVJ - Swinton Smith Field at Reidsville Municipal Airport (19 nm S)
KSBO - East Georgia Regional Airport (20 nm NW)
 
Loc | Ops | Rwys | IFR | FBO | Links
Com | Nav | Svcs | Stats | Notes


 
Area around KMHP (Metter Municipal Airport)
 
Road maps at: MapQuest Bing Google
 
Aerial photo
WARNING: Photo may not be current or correct
Aerial photo of KMHP (Metter Municipal Airport)
Do you have a better or more recent aerial photo of Metter Municipal Airport that you would like to share? If so, please send us your photo.

 
Sectional chart

 
Airport distance calculator
Flying to Metter Municipal Airport? Find the distance to fly.

From to KMHP

Sunrise and sunset
Times for 17-Oct-2018
 Local
(UTC-4)
 Zulu
(UTC)
Morning civil twilight07:1011:10
Sunrise07:3511:35
Sunset18:5322:53
Evening civil twilight19:1823:18

Current date and time
Zulu (UTC)  17-Oct-2018 06:44:29
Local (UTC-4)  17-Oct-2018 02:44:29
 
METAR
KCWV 
15nm SE 
170635Z AUTO 00000KT 10SM VCTS BKN011 OVC016 25/24 A3011 RMK AO2 LTG DSNT NW T02520240
KVDI 
18nm SW 
170635Z AUTO 00000KT 10SM -VCTSRA BKN017 BKN050 OVC075 24/22 A3011 RMK AO2 LTG DSNT NE
KTBR 
19nm E 
170635Z AUTO 24003KT 10SM VCTS BKN020 OVC049 25/23 A3010 RMK AO2 LTG DSNT NE T02480227
KSBO 
20nm NW 
170635Z AUTO 00000KT 5SM VCTS BR SCT002 BKN010 OVC015 23/23 A3012 RMK AO2 LTG DSNT NW
KJYL 
29nm NE 
170635Z AUTO 00000KT 2SM -RA SCT011 BKN024 OVC046 24/24 A3011 RMK AO2 LTG DSNT SW T02410236
TAF
KSAV 
47nm E 
170530Z 1706/1806 20005KT P6SM SCT050 FM170900 21004KT 6SM MIFG SCT006 FM171300 28007KT P6SM SCT025 BKN040 FM172300 36006KT P6SM BKN040
NOTAMs
Click for the latest NOTAMs
NOTAMs are issued by the DoD/FAA and will open in a separate window not controlled by AirNav.

 

 
 

FBO, Fuel Providers, and Aircraft Ground Support

  
 Business Name 
 
 Contact 
 
 Services / Description 
 
Fuel Prices
 
Comments
  
Metter Municipal Airport 912-685-4162
no information available

If you are affiliated with Metter Municipal Airport and would like to show here your services, contact info, web link, logo, and more, click here
100LL
SS $4.49 
 Updated 14-Aug-2018
 
   write
SS=Self service
Update Fuel Prices
 

Would you like to see your business listed on this page?

 If your business provides an interesting product or service to pilots, flight crews, aircraft, or users of the Metter Municipal Airport, you should consider listing it here.  To start the listing process, click on the button below
 
Add a business
 

Other Pages about Metter Municipal Airport

East Georgia's Premier Hunting and Fishing Resort & Spa
 
Update a link
 
Copyright © AirNav, LLC. All rights reserved. Privacy Policy  Contact